createdAt,value
2019-05-01T00:01:11.356Z,96.87
2019-05-01T00:03:41.764Z,100.62
2019-05-01T00:06:12.382Z,107.60
2019-05-01T00:08:41.233Z,113.32
2019-05-01T00:11:09.967Z,105.65
2019-05-01T00:13:38.743Z,106.75
2019-05-01T00:16:07.545Z,104.03
2019-05-01T00:18:36.311Z,104.50
2019-05-01T00:21:05.045Z,102.92
2019-05-01T00:23:33.819Z,110.55
2019-05-01T00:26:02.564Z,109.75
2019-05-01T00:28:31.401Z,113.97
2019-05-01T00:31:00.220Z,110.65
2019-05-01T00:33:28.994Z,110.52
2019-05-01T00:35:57.730Z,103.12
2019-05-01T00:38:26.502Z,110.30
2019-05-01T00:40:55.312Z,109.52
2019-05-01T00:43:24.099Z,118.37
2019-05-01T00:45:52.832Z,118.75
2019-05-01T00:48:21.576Z,120.17
2019-05-01T00:50:50.341Z,139.68
2019-05-01T00:53:19.161Z,148.78
2019-05-01T00:56:04.713Z,145.20
2019-05-01T00:58:50.492Z,144.03
2019-05-01T01:01:23.824Z,132.55
2019-05-01T01:03:52.677Z,138.55
2019-05-01T01:06:21.512Z,133.18
2019-05-01T01:08:50.277Z,140.45
2019-05-01T01:11:19.044Z,143.52
2019-05-01T01:13:47.785Z,140.57
2019-05-01T01:16:16.557Z,150.85
2019-05-01T01:18:46.539Z,146.35
2019-05-01T01:21:15.338Z,138.00
2019-05-01T01:23:44.843Z,144.60
2019-05-01T01:26:13.902Z,144.43
2019-05-01T01:28:42.647Z,135.75
2019-05-01T01:31:11.480Z,116.57
2019-05-01T01:33:40.217Z,106.35
2019-05-01T01:36:08.980Z,101.07
2019-05-01T01:38:37.738Z,107.65
2019-05-01T01:41:06.733Z,111.12
2019-05-01T01:43:53.620Z,113.77
2019-05-01T01:46:27.247Z,116.30
2019-05-01T01:48:56.651Z,117.22
2019-05-01T01:51:25.617Z,119.37
2019-05-01T01:53:55.128Z,126.10
2019-05-01T01:56:23.900Z,125.33
2019-05-01T01:58:53.736Z,123.47
2019-05-01T02:01:40.197Z,124.10
2019-05-01T02:04:13.328Z,131.40
2019-05-01T02:06:42.172Z,120.10
2019-05-01T02:09:11.075Z,133.63
2019-05-01T02:11:40.136Z,131.47
2019-05-01T02:14:08.884Z,130.78
2019-05-01T02:16:37.763Z,135.70
2019-05-01T02:19:06.573Z,132.65
2019-05-01T02:21:35.341Z,125.15
2019-05-01T02:24:04.076Z,130.03
2019-05-01T02:26:34.540Z,129.03
2019-05-01T02:29:04.927Z,124.53
2019-05-01T02:31:36.337Z,123.47
2019-05-01T02:34:06.247Z,156.82
2019-05-01T02:36:35.257Z,148.97
2019-05-01T02:39:05.748Z,155.48
2019-05-01T02:41:36.611Z,178.97
2019-05-01T02:44:11.401Z,187.97
2019-05-01T02:46:43.119Z,192.47
2019-05-01T02:49:17.596Z,176.82
2019-05-01T02:51:46.657Z,175.90
2019-05-01T02:54:18.339Z,195.45
2019-05-01T02:56:59.553Z,189.23
2019-05-01T02:59:30.643Z,188.22
2019-05-01T03:02:02.071Z,195.35
2019-05-01T03:04:31.410Z,193.80
2019-05-01T03:07:00.980Z,186.63
2019-05-01T03:09:30.263Z,194.30
2019-05-01T03:12:00.300Z,186.30
2019-05-01T03:14:58.161Z,194.97
2019-05-01T03:17:31.960Z,188.93
2019-05-01T03:20:03.677Z,193.17
2019-05-01T03:22:34.462Z,182.60
2019-05-01T03:25:03.323Z,195.53
2019-05-01T03:27:32.080Z,187.35
2019-05-01T03:30:00.914Z,182.93
2019-05-01T03:32:29.862Z,181.67
2019-05-01T03:34:58.706Z,200.18
2019-05-01T03:37:27.881Z,196.95
2019-05-01T03:39:56.964Z,187.57
2019-05-01T03:42:26.101Z,191.47
2019-05-01T03:44:55.057Z,191.80
2019-05-01T03:47:23.794Z,197.45
2019-05-01T03:49:53.086Z,181.63
2019-05-01T03:52:22.139Z,135.68
2019-05-01T03:54:50.909Z,167.80
2019-05-01T03:57:19.987Z,169.05
2019-05-01T03:59:49.226Z,166.82
2019-05-01T04:02:33.255Z,162.20
2019-05-01T04:04:50.526Z,173.95
2019-05-01T04:07:19.592Z,168.50
2019-05-01T04:09:50.219Z,160.80
2019-05-01T04:12:19.404Z,163.15
2019-05-01T04:14:49.025Z,167.47
2019-05-01T04:17:25.723Z,169.80
2019-05-01T04:19:54.564Z,174.47
2019-05-01T04:22:23.901Z,171.73
2019-05-01T04:24:52.940Z,165.57
2019-05-01T04:27:23.617Z,181.45
2019-05-01T04:29:54.243Z,179.78
2019-05-01T04:32:24.819Z,206.28
2019-05-01T04:34:55.330Z,191.88
2019-05-01T04:37:25.685Z,208.23
2019-05-01T04:39:55.013Z,214.45
2019-05-01T04:42:23.773Z,206.40
2019-05-01T04:44:52.534Z,208.13
2019-05-01T04:47:22.101Z,211.23
2019-05-01T04:49:50.838Z,196.80
2019-05-01T04:52:19.715Z,213.10
2019-05-01T04:54:48.654Z,195.60
2019-05-01T04:57:18.021Z,184.65
2019-05-01T04:59:47.925Z,195.43
2019-05-01T05:02:32.493Z,197.07
2019-05-01T05:05:01.375Z,201.10
2019-05-01T05:07:30.256Z,200.10
2019-05-01T05:09:59.372Z,197.32
2019-05-01T05:12:29.985Z,188.52
2019-05-01T05:15:12.899Z,183.05
2019-05-01T05:17:42.299Z,187.70
2019-05-01T05:20:11.299Z,185.28
2019-05-01T05:22:40.241Z,181.43
2019-05-01T05:25:09.008Z,182.35
2019-05-01T05:27:38.376Z,170.62
2019-05-01T05:30:07.184Z,177.73
2019-05-01T05:32:37.957Z,178.60
2019-05-01T05:35:08.165Z,177.75
2019-05-01T05:37:56.294Z,173.23
2019-05-01T05:40:28.783Z,175.22
2019-05-01T05:42:58.138Z,173.17
2019-05-01T05:45:27.479Z,155.37
2019-05-01T05:47:56.398Z,165.35
2019-05-01T05:50:26.888Z,161.07
2019-05-01T05:53:18.372Z,168.10
2019-05-01T05:55:56.120Z,159.50
2019-05-01T05:58:27.031Z,156.80
2019-05-01T06:01:15.748Z,157.65
2019-05-01T06:03:48.931Z,153.10
2019-05-01T06:06:43.807Z,160.82
2019-05-01T06:09:15.672Z,156.15
2019-05-01T06:12:04.856Z,148.82
2019-05-01T06:14:41.032Z,153.75
2019-05-01T06:17:17.000Z,151.78
2019-05-01T06:19:50.960Z,165.92
2019-05-01T06:22:28.381Z,152.78
2019-05-01T06:25:21.480Z,146.37
2019-05-01T06:27:39.876Z,156.33
2019-05-01T06:30:10.988Z,165.00
2019-05-01T06:32:41.392Z,154.63
2019-05-01T06:35:10.328Z,141.82
2019-05-01T06:38:02.195Z,146.72
2019-05-01T06:40:43.049Z,143.17
2019-05-01T06:43:20.201Z,134.67
2019-05-01T06:46:07.829Z,121.10
2019-05-01T06:48:38.212Z,124.55
2019-05-01T06:51:24.865Z,115.62
2019-05-01T06:53:53.680Z,121.97
2019-05-01T06:56:22.649Z,119.93
2019-05-01T06:58:55.234Z,122.05
2019-05-01T07:01:24.043Z,125.92
2019-05-01T07:04:03.654Z,119.95
2019-05-01T07:06:26.068Z,114.32
2019-05-01T07:08:54.134Z,117.95
2019-05-01T07:11:22.991Z,136.37
2019-05-01T07:13:51.808Z,117.87
2019-05-01T07:16:23.321Z,126.45
2019-05-01T07:18:58.010Z,114.73
2019-05-01T07:21:27.723Z,113.50
2019-05-01T07:23:55.484Z,103.60
2019-05-01T07:26:24.274Z,126.13
2019-05-01T07:29:06.080Z,119.02
2019-05-01T07:31:34.893Z,113.20
2019-05-01T07:34:15.837Z,108.45
2019-05-01T07:36:34.191Z,118.33
2019-05-01T07:39:04.697Z,105.72
2019-05-01T07:41:33.887Z,102.05
2019-05-01T07:44:22.817Z,104.67
2019-05-01T07:46:56.296Z,96.32
2019-05-01T07:49:28.220Z,96.28
2019-05-01T07:51:57.180Z,90.35
2019-05-01T07:54:25.940Z,112.32
2019-05-01T07:56:58.784Z,93.45
2019-05-01T07:59:27.490Z,97.55
2019-05-01T08:01:59.950Z,115.92
2019-05-01T08:04:35.888Z,89.83
2019-05-01T08:06:59.161Z,91.53
2019-05-01T08:09:27.936Z,77.70
2019-05-01T08:11:56.680Z,86.57
2019-05-01T08:14:25.459Z,74.05
2019-05-01T08:16:54.283Z,73.60
2019-05-01T08:19:27.104Z,73.28
2019-05-01T08:22:01.605Z,83.50
2019-05-01T08:24:27.968Z,75.57
2019-05-01T08:26:56.787Z,77.50
2019-05-01T08:29:43.824Z,68.22
2019-05-01T08:32:14.252Z,78.72
2019-05-01T08:34:49.185Z,78.60
2019-05-01T08:37:13.452Z,70.75
2019-05-01T08:39:44.318Z,69.85
2019-05-01T08:42:12.609Z,85.80
2019-05-01T08:44:43.132Z,69.25
2019-05-01T08:47:16.504Z,67.15
2019-05-01T08:49:58.980Z,65.70
2019-05-01T08:52:27.728Z,88.12
2019-05-01T08:54:56.617Z,101.10
2019-05-01T08:57:29.201Z,73.45
2019-05-01T09:00:00.184Z,72.47
2019-05-01T09:02:26.268Z,65.28
2019-05-01T09:05:02.152Z,78.90
2019-05-01T09:07:25.488Z,74.58
2019-05-01T09:09:54.229Z,76.42
2019-05-01T09:12:23.264Z,84.90
2019-05-01T09:14:52.097Z,81.57
2019-05-01T09:17:20.861Z,98.25
2019-05-01T09:19:49.597Z,87.37
2019-05-01T09:22:18.365Z,85.75
2019-05-01T09:24:48.076Z,97.80
2019-05-01T09:27:34.940Z,89.28
2019-05-01T09:30:09.520Z,107.52
2019-05-01T09:32:38.297Z,118.85
2019-05-01T09:35:15.403Z,91.60
2019-05-01T09:37:37.548Z,93.23
2019-05-01T09:40:10.411Z,96.73
2019-05-01T09:42:39.362Z,107.67
2019-05-01T09:45:08.397Z,108.25
2019-05-01T09:47:37.529Z,98.17
2019-05-01T09:50:07.448Z,99.62
2019-05-01T09:52:47.084Z,89.00
2019-05-01T09:55:24.901Z,101.10
2019-05-01T09:57:53.861Z,107.58
2019-05-01T10:00:24.976Z,109.22
2019-05-01T10:02:54.751Z,90.17
2019-05-01T10:05:29.133Z,99.65
2019-05-01T10:07:59.977Z,102.32
2019-05-01T10:10:24.814Z,95.15
2019-05-01T10:12:54.941Z,87.57
2019-05-01T10:15:23.782Z,140.52
2019-05-01T10:17:52.593Z,126.50
2019-05-01T10:20:21.365Z,117.25
2019-05-01T10:22:50.108Z,127.58
2019-05-01T10:25:18.880Z,125.40
2019-05-01T10:27:49.281Z,124.05
2019-05-01T10:30:22.442Z,129.25
2019-05-01T10:32:57.926Z,118.30
2019-05-01T10:35:42.820Z,117.65
2019-05-01T10:38:09.308Z,123.87
2019-05-01T10:40:37.524Z,135.18
2019-05-01T10:43:06.420Z,118.10
2019-05-01T10:45:35.237Z,106.70
2019-05-01T10:48:05.040Z,108.63
2019-05-01T10:50:33.922Z,112.95
2019-05-01T10:53:02.677Z,123.07
2019-05-01T10:55:31.441Z,107.65
2019-05-01T10:58:03.114Z,114.63
2019-05-01T11:00:30.948Z,117.75
2019-05-01T11:02:59.794Z,117.85
2019-05-01T11:05:28.572Z,131.65
2019-05-01T11:07:57.393Z,112.05
2019-05-01T11:10:26.164Z,107.45
2019-05-01T11:12:54.986Z,115.65
2019-05-01T11:15:23.798Z,114.00
2019-05-01T11:17:52.571Z,104.35
2019-05-01T11:20:21.405Z,115.08
2019-05-01T11:22:50.233Z,97.10
2019-05-01T11:25:20.647Z,88.05
2019-05-01T11:27:49.427Z,110.40
2019-05-01T11:30:18.532Z,103.73
2019-05-01T11:32:51.697Z,94.17
2019-05-01T11:35:25.127Z,100.55
2019-05-01T11:38:01.433Z,95.45
2019-05-01T11:40:37.898Z,97.37
2019-05-01T11:43:06.664Z,91.30
2019-05-01T11:45:35.468Z,95.27
2019-05-01T11:48:04.316Z,101.05
2019-05-01T11:50:36.045Z,86.85
2019-05-01T11:53:04.861Z,91.15
2019-05-01T11:55:33.598Z,77.27
2019-05-01T11:58:02.437Z,84.67
2019-05-01T12:00:31.254Z,82.05
2019-05-01T12:03:00.113Z,80.60
2019-05-01T12:05:28.861Z,79.35
2019-05-01T12:07:57.646Z,79.03
2019-05-01T12:10:26.455Z,80.53
2019-05-01T12:12:55.213Z,88.27
2019-05-01T12:15:24.061Z,91.08
2019-05-01T12:17:52.831Z,86.28
2019-05-01T12:20:22.559Z,86.60
2019-05-01T12:22:51.725Z,76.35
2019-05-01T12:25:20.662Z,92.13
2019-05-01T12:27:49.701Z,91.10
2019-05-01T12:30:18.940Z,81.08
2019-05-01T12:32:47.793Z,88.70
2019-05-01T12:35:16.633Z,74.22
2019-05-01T12:37:45.370Z,84.20
2019-05-01T12:40:17.299Z,80.42
2019-05-01T12:42:46.106Z,89.05
2019-05-01T12:45:15.941Z,83.85
2019-05-01T12:47:49.450Z,82.78
2019-05-01T12:50:18.614Z,81.67
2019-05-01T12:52:49.002Z,86.82
2019-05-01T12:55:19.406Z,82.75
2019-05-01T12:57:48.143Z,82.25
2019-05-01T13:00:18.548Z,75.60
2019-05-01T13:02:47.372Z,78.15
2019-05-01T13:05:16.238Z,74.15
2019-05-01T13:07:45.005Z,80.35
2019-05-01T13:10:13.949Z,76.42
2019-05-01T13:12:42.783Z,74.65
2019-05-01T13:15:11.695Z,74.27
2019-05-01T13:17:40.555Z,76.40
2019-05-01T13:20:09.289Z,75.47
2019-05-01T13:22:38.059Z,79.32
2019-05-01T13:25:07.589Z,79.55
2019-05-01T13:27:38.001Z,73.20
2019-05-01T13:30:11.329Z,70.37
2019-05-01T13:32:41.745Z,62.80
2019-05-01T13:35:10.680Z,80.22
2019-05-01T13:37:39.616Z,79.32
2019-05-01T13:40:09.536Z,73.45
2019-05-01T13:42:38.301Z,76.75
2019-05-01T13:45:08.548Z,66.95
2019-05-01T13:47:37.381Z,72.35
2019-05-01T13:50:07.089Z,89.13
2019-05-01T13:52:35.856Z,79.42
2019-05-01T13:55:06.231Z,85.15
2019-05-01T13:57:34.964Z,76.47
2019-05-01T14:00:07.752Z,74.05
2019-05-01T14:02:36.565Z,73.10
2019-05-01T14:05:08.380Z,72.87
2019-05-01T14:07:37.167Z,73.45
2019-05-01T14:10:06.506Z,74.00
2019-05-01T14:12:35.354Z,77.42
2019-05-01T14:15:04.785Z,72.47
2019-05-01T14:17:33.544Z,73.27
2019-05-01T14:20:06.912Z,87.72
2019-05-01T14:22:43.322Z,73.25
2019-05-01T14:25:13.732Z,82.97
2019-05-01T14:27:42.472Z,80.05
2019-05-01T14:30:11.920Z,85.50
2019-05-01T14:32:40.728Z,82.33
2019-05-01T14:35:09.909Z,78.00
2019-05-01T14:37:38.828Z,89.10
2019-05-01T14:40:09.169Z,76.87
2019-05-01T14:42:37.977Z,85.90
2019-05-01T14:45:08.813Z,79.22
2019-05-01T14:47:37.593Z,84.70
2019-05-01T14:50:06.960Z,85.37
2019-05-01T14:52:35.733Z,82.92
2019-05-01T14:55:06.857Z,75.87
2019-05-01T14:57:35.640Z,79.97
2019-05-01T15:00:06.253Z,74.97
2019-05-01T15:02:35.106Z,80.90
2019-05-01T15:05:05.445Z,77.37
2019-05-01T15:07:43.485Z,80.85
2019-05-01T15:10:05.940Z,71.63
2019-05-01T15:12:34.789Z,79.05
2019-05-01T15:15:17.316Z,86.60
2019-05-01T15:17:50.412Z,78.20
2019-05-01T15:20:19.209Z,71.72
2019-05-01T15:22:48.009Z,78.57
2019-05-01T15:25:16.713Z,82.33
2019-05-01T15:27:45.650Z,85.05
2019-05-01T15:30:17.532Z,84.30
2019-05-01T15:32:46.773Z,86.85
2019-05-01T15:35:15.511Z,85.17
2019-05-01T15:37:56.089Z,81.30
2019-05-01T15:40:16.413Z,60.33
2019-05-01T15:42:52.804Z,68.17
2019-05-01T15:45:21.624Z,70.20
2019-05-01T15:47:50.424Z,81.67
2019-05-01T15:50:19.260Z,87.92
2019-05-01T15:52:47.997Z,79.32
2019-05-01T15:55:16.939Z,73.85
2019-05-01T15:57:45.748Z,69.22
2019-05-01T16:00:16.557Z,71.45
2019-05-01T16:02:45.297Z,71.33
2019-05-01T16:05:14.420Z,84.52
2019-05-01T16:07:43.228Z,81.55
2019-05-01T16:10:14.130Z,74.90
2019-05-01T16:12:44.507Z,78.22
2019-05-01T16:15:17.748Z,81.57
2019-05-01T16:17:46.561Z,76.12
2019-05-01T16:20:16.817Z,87.40
2019-05-01T16:22:45.967Z,72.37
2019-05-01T16:25:15.110Z,76.37
2019-05-01T16:27:43.957Z,75.37
2019-05-01T16:30:14.444Z,74.03
2019-05-01T16:32:43.214Z,72.92
2019-05-01T16:35:11.957Z,76.05
2019-05-01T16:37:40.738Z,65.72
2019-05-01T16:40:17.309Z,67.58
2019-05-01T16:42:46.116Z,72.80
2019-05-01T16:45:15.432Z,75.78
2019-05-01T16:47:44.198Z,74.00
2019-05-01T16:50:13.149Z,77.17
2019-05-01T16:52:43.389Z,78.83
2019-05-01T16:55:13.725Z,68.92
2019-05-01T16:57:42.492Z,78.00
2019-05-01T17:00:12.902Z,76.82
2019-05-01T17:02:52.392Z,77.65
2019-05-01T17:05:28.625Z,80.12
2019-05-01T17:07:59.028Z,77.78
2019-05-01T17:10:35.425Z,74.30
2019-05-01T17:13:05.052Z,77.75
2019-05-01T17:15:35.431Z,84.00
2019-05-01T17:18:04.297Z,70.83
2019-05-01T17:20:33.120Z,70.83
2019-05-01T17:23:01.960Z,67.72
2019-05-01T17:25:30.770Z,72.78
2019-05-01T17:28:02.974Z,70.78
2019-05-01T17:30:45.075Z,70.47
2019-05-01T17:33:19.552Z,69.90
2019-05-01T17:35:44.217Z,79.53
2019-05-01T17:38:12.985Z,68.65
2019-05-01T17:40:41.728Z,68.22
2019-05-01T17:43:13.409Z,64.17
2019-05-01T17:45:40.951Z,69.27
2019-05-01T17:48:10.791Z,65.05
2019-05-01T17:50:39.485Z,56.95
2019-05-01T17:53:08.261Z,62.13
2019-05-01T17:55:37.070Z,64.60
2019-05-01T17:58:05.936Z,39.05
2019-05-01T18:00:39.066Z,39.80
2019-05-01T18:03:26.137Z,27.98
2019-05-01T18:06:08.400Z,28.02
2019-05-01T18:08:37.237Z,31.52
2019-05-01T18:11:09.298Z,25.20
2019-05-01T18:13:36.433Z,35.88
2019-05-01T18:16:05.341Z,52.13
2019-05-01T18:18:34.111Z,53.05
2019-05-01T18:21:03.360Z,53.63
2019-05-01T18:23:53.031Z,42.45
2019-05-01T18:26:38.765Z,57.08
2019-05-01T18:29:10.173Z,53.15
2019-05-01T18:31:42.111Z,56.37
2019-05-01T18:34:11.466Z,59.27
2019-05-01T18:36:44.648Z,58.17
2019-05-01T18:39:16.983Z,63.87
2019-05-01T18:41:50.757Z,65.65
2019-05-01T18:44:24.416Z,63.28
2019-05-01T18:46:53.368Z,62.67
2019-05-01T18:49:22.280Z,67.65
2019-05-01T18:51:51.973Z,71.70
2019-05-01T18:54:20.852Z,71.15
2019-05-01T18:56:50.318Z,76.00
2019-05-01T18:59:20.556Z,86.67
2019-05-01T19:01:50.753Z,90.87
2019-05-01T19:04:23.567Z,79.87
2019-05-01T19:06:49.994Z,78.37
2019-05-01T19:09:29.369Z,87.05
2019-05-01T19:11:49.208Z,73.90
2019-05-01T19:14:18.621Z,91.53
2019-05-01T19:16:47.464Z,79.77
2019-05-01T19:19:16.308Z,81.90
2019-05-01T19:21:46.539Z,95.85
2019-05-01T19:24:16.513Z,86.47
2019-05-01T19:26:45.430Z,92.37
2019-05-01T19:29:14.257Z,103.92
2019-05-01T19:31:43.104Z,102.43
2019-05-01T19:34:11.893Z,97.92
2019-05-01T19:36:45.137Z,105.65
2019-05-01T19:39:12.861Z,95.47
2019-05-01T19:41:43.788Z,105.60
2019-05-01T19:44:13.849Z,113.10
2019-05-01T19:46:42.738Z,104.70
2019-05-01T19:49:11.550Z,118.30
2019-05-01T19:51:40.254Z,118.70
2019-05-01T19:54:09.028Z,120.80
2019-05-01T19:56:37.853Z,120.65
2019-05-01T19:59:06.629Z,121.33
2019-05-01T20:01:38.457Z,112.75
2019-05-01T20:04:08.442Z,117.37
2019-05-01T20:06:38.547Z,117.42
2019-05-01T20:09:07.006Z,117.23
2019-05-01T20:11:35.829Z,129.30
2019-05-01T20:14:06.222Z,135.22
2019-05-01T20:16:35.251Z,125.12
2019-05-01T20:19:04.159Z,141.85
2019-05-01T20:21:32.956Z,139.60
2019-05-01T20:24:04.402Z,131.63
2019-05-01T20:26:33.995Z,184.32
2019-05-01T20:29:02.768Z,184.40
2019-05-01T20:31:32.862Z,182.65
2019-05-01T20:34:01.806Z,162.65
2019-05-01T20:36:30.553Z,167.47
2019-05-01T20:38:59.361Z,168.02
2019-05-01T20:41:28.297Z,173.80
2019-05-01T20:43:57.036Z,181.87
2019-05-01T20:46:27.724Z,180.42
2019-05-01T20:49:00.954Z,184.53
2019-05-01T20:51:26.762Z,172.65
2019-05-01T20:53:55.534Z,169.37
2019-05-01T20:56:26.352Z,175.75
2019-05-01T20:58:57.623Z,182.20
2019-05-01T21:01:28.224Z,185.48
2019-05-01T21:03:59.184Z,185.03
2019-05-01T21:06:29.602Z,191.62
2019-05-01T21:09:13.819Z,192.70
2019-05-01T21:11:42.239Z,197.47
2019-05-01T21:14:22.599Z,196.50
2019-05-01T21:16:43.381Z,156.07
2019-05-01T21:19:12.180Z,143.55
2019-05-01T21:21:41.150Z,164.20
2019-05-01T21:24:09.880Z,165.47
2019-05-01T21:26:38.684Z,163.07
2019-05-01T21:29:07.436Z,169.80
2019-05-01T21:31:36.277Z,174.15
2019-05-01T21:34:05.096Z,177.07
2019-05-01T21:36:33.865Z,162.05
2019-05-01T21:39:02.686Z,177.87
2019-05-01T21:41:32.878Z,173.38
2019-05-01T21:44:03.127Z,188.70
2019-05-01T21:46:33.945Z,190.05
2019-05-01T21:49:02.770Z,191.43
2019-05-01T21:51:32.858Z,194.70
2019-05-01T21:54:03.293Z,204.30
2019-05-01T21:56:32.157Z,198.13
2019-05-01T21:59:06.640Z,204.13
2019-05-01T22:01:34.882Z,203.73
2019-05-01T22:04:02.346Z,205.87
2019-05-01T22:06:31.288Z,220.70
2019-05-01T22:09:00.264Z,216.08
2019-05-01T22:11:33.044Z,211.65
2019-05-01T22:14:02.037Z,214.82
2019-05-01T22:16:31.069Z,210.30
2019-05-01T22:19:01.584Z,212.05
2019-05-01T22:21:34.677Z,217.55
2019-05-01T22:24:14.216Z,221.40
2019-05-01T22:26:50.457Z,207.90
2019-05-01T22:29:20.877Z,209.45
2019-05-01T22:32:07.148Z,207.50
2019-05-01T22:34:46.529Z,216.27
2019-05-01T22:37:15.270Z,231.23
2019-05-01T22:39:45.688Z,215.40
2019-05-01T22:42:14.500Z,231.75
2019-05-01T22:44:43.345Z,231.30
2019-05-01T22:47:15.002Z,239.38
2019-05-01T22:49:42.617Z,236.52
2019-05-01T22:52:11.357Z,246.25
2019-05-01T22:54:40.124Z,263.27
2019-05-01T22:57:08.866Z,256.43
2019-05-01T22:59:37.637Z,253.05
2019-05-01T23:02:24.243Z,241.77
2019-05-01T23:04:52.071Z,253.55
2019-05-01T23:07:21.169Z,251.77
2019-05-01T23:09:50.008Z,249.55
2019-05-01T23:12:18.824Z,254.03
2019-05-01T23:14:47.664Z,253.62
2019-05-01T23:17:20.641Z,253.83
2019-05-01T23:19:49.576Z,257.77
2019-05-01T23:22:18.584Z,238.92
2019-05-01T23:24:47.423Z,263.62
2019-05-01T23:27:16.229Z,267.10
2019-05-01T23:29:45.049Z,262.32
2019-05-01T23:32:13.906Z,271.77
2019-05-01T23:34:42.646Z,260.70
2019-05-01T23:37:11.414Z,273.90
2019-05-01T23:39:42.095Z,267.77
2019-05-01T23:42:10.675Z,274.18
2019-05-01T23:44:43.034Z,266.82
2019-05-01T23:47:09.905Z,266.50
2019-05-01T23:49:38.717Z,290.65
2019-05-01T23:52:07.552Z,277.25
2019-05-01T23:54:36.292Z,285.73
2019-05-01T23:57:05.072Z,265.27
2019-05-01T23:59:33.881Z,273.05
